Tannersville, Virginia
Current Conditions -  °F | °C
As of 12:35 PM on Thursday 30 Oct 2014 (Local Time) from KJFZ Reporting Station
Broken Clouds Broken Clouds  
Wind Chill:   Ceiling: 2200
Heat Index:   Visibility: 10mi
Dew Point:   Wind: 0mph
Humidity: 68%   Direction: NA
Pressure: 30.1"   Gusts: NA
Location:  36.98°N, 81.63°W
Report Text: KJFZ 301635Z AUTO 00000KT 10SM BKN022 09/03 A3010 RMK AO2 T00850028
Loading
Personal Weather Stations






























Interactive Weather Map
Tropical Storm Tracking
New forecast layout! Learn more

10-Day Weather Forecast

Advertisements
Track Severe Weather on mobile